sensor_id;sensor_type;location;lat;lon;timestamp;P1;durP1;ratioP1;P2;durP2;ratioP2
36669;SDS011;22662;47.412;9.742;2022-07-23T00:02:09;12.48;;;9.38;;
36669;SDS011;22662;47.412;9.742;2022-07-23T00:04:34;9.57;;;8.52;;
36669;SDS011;22662;47.412;9.742;2022-07-23T00:07:00;10.18;;;9.07;;
36669;SDS011;22662;47.412;9.742;2022-07-23T00:09:26;10.18;;;9.07;;
36669;SDS011;22662;47.412;9.742;2022-07-23T00:11:53;11.82;;;9.40;;
36669;SDS011;22662;47.412;9.742;2022-07-23T00:14:19;13.65;;;9.23;;
36669;SDS011;22662;47.412;9.742;2022-07-23T00:16:45;11.88;;;9.23;;
36669;SDS011;22662;47.412;9.742;2022-07-23T00:19:11;11.55;;;9.90;;
36669;SDS011;22662;47.412;9.742;2022-07-23T00:21:39;10.05;;;9.05;;
36669;SDS011;22662;47.412;9.742;2022-07-23T00:24:05;10.57;;;9.00;;
36669;SDS011;22662;47.412;9.742;2022-07-23T00:26:31;10.63;;;8.98;;
36669;SDS011;22662;47.412;9.742;2022-07-23T00:28:57;9.35;;;8.55;;
36669;SDS011;22662;47.412;9.742;2022-07-23T00:31:22;10.63;;;9.50;;
36669;SDS011;22662;47.412;9.742;2022-07-23T00:33:48;10.80;;;9.70;;
36669;SDS011;22662;47.412;9.742;2022-07-23T00:36:14;11.45;;;9.77;;
36669;SDS011;22662;47.412;9.742;2022-07-23T00:38:40;10.20;;;9.15;;
36669;SDS011;22662;47.412;9.742;2022-07-23T00:41:06;10.23;;;9.18;;
36669;SDS011;22662;47.412;9.742;2022-07-23T00:43:31;10.48;;;9.13;;
36669;SDS011;22662;47.412;9.742;2022-07-23T00:45:57;12.40;;;9.77;;
36669;SDS011;22662;47.412;9.742;2022-07-23T00:48:23;10.38;;;9.38;;
36669;SDS011;22662;47.412;9.742;2022-07-23T00:50:49;11.57;;;10.07;;
36669;SDS011;22662;47.412;9.742;2022-07-23T00:53:15;12.65;;;11.18;;
36669;SDS011;22662;47.412;9.742;2022-07-23T00:55:41;12.15;;;10.95;;
36669;SDS011;22662;47.412;9.742;2022-07-23T00:58:06;12.38;;;11.15;;
36669;SDS011;22662;47.412;9.742;2022-07-23T01:00:34;12.88;;;11.52;;
36669;SDS011;22662;47.412;9.742;2022-07-23T01:03:00;12.02;;;10.93;;
36669;SDS011;22662;47.412;9.742;2022-07-23T01:05:26;13.77;;;11.52;;
36669;SDS011;22662;47.412;9.742;2022-07-23T01:07:52;13.23;;;11.82;;
36669;SDS011;22662;47.412;9.742;2022-07-23T01:10:18;12.60;;;11.40;;
36669;SDS011;22662;47.412;9.742;2022-07-23T01:12:55;12.00;;;10.80;;
36669;SDS011;22662;47.412;9.742;2022-07-23T01:15:22;11.82;;;10.63;;
36669;SDS011;22662;47.412;9.742;2022-07-23T01:17:48;11.77;;;10.55;;
36669;SDS011;22662;47.412;9.742;2022-07-23T01:20:14;10.73;;;9.63;;
36669;SDS011;22662;47.412;9.742;2022-07-23T01:22:40;11.30;;;9.63;;
36669;SDS011;22662;47.412;9.742;2022-07-23T01:25:06;9.73;;;8.85;;
36669;SDS011;22662;47.412;9.742;2022-07-23T01:27:32;9.82;;;8.93;;
36669;SDS011;22662;47.412;9.742;2022-07-23T01:29:59;10.30;;;9.40;;
36669;SDS011;22662;47.412;9.742;2022-07-23T01:32:26;10.77;;;9.70;;
36669;SDS011;22662;47.412;9.742;2022-07-23T01:34:51;10.40;;;9.40;;
36669;SDS011;22662;47.412;9.742;2022-07-23T01:37:17;12.98;;;11.63;;
36669;SDS011;22662;47.412;9.742;2022-07-23T01:39:43;14.02;;;12.63;;
36669;SDS011;22662;47.412;9.742;2022-07-23T01:42:09;14.80;;;13.30;;
36669;SDS011;22662;47.412;9.742;2022-07-23T01:44:35;14.38;;;12.98;;
36669;SDS011;22662;47.412;9.742;2022-07-23T01:47:00;14.80;;;13.27;;
36669;SDS011;22662;47.412;9.742;2022-07-23T01:49:26;14.68;;;13.32;;
36669;SDS011;22662;47.412;9.742;2022-07-23T01:51:52;14.45;;;12.73;;
36669;SDS011;22662;47.412;9.742;2022-07-23T01:54:27;15.32;;;12.77;;
36669;SDS011;22662;47.412;9.742;2022-07-23T01:56:57;14.55;;;13.02;;
36669;SDS011;22662;47.412;9.742;2022-07-23T01:59:24;14.07;;;12.60;;
36669;SDS011;22662;47.412;9.742;2022-07-23T02:01:51;14.10;;;12.77;;
36669;SDS011;22662;47.412;9.742;2022-07-23T02:04:18;15.32;;;13.73;;
36669;SDS011;22662;47.412;9.742;2022-07-23T02:06:44;14.30;;;12.98;;
36669;SDS011;22662;47.412;9.742;2022-07-23T02:09:10;13.93;;;12.63;;
36669;SDS011;22662;47.412;9.742;2022-07-23T02:11:36;14.13;;;12.73;;
36669;SDS011;22662;47.412;9.742;2022-07-23T02:14:02;15.20;;;13.55;;
36669;SDS011;22662;47.412;9.742;2022-07-23T02:16:28;14.10;;;12.70;;
36669;SDS011;22662;47.412;9.742;2022-07-23T02:18:54;14.85;;;12.63;;
36669;SDS011;22662;47.412;9.742;2022-07-23T02:21:20;15.75;;;13.15;;
36669;SDS011;22662;47.412;9.742;2022-07-23T02:23:46;13.80;;;12.40;;
36669;SDS011;22662;47.412;9.742;2022-07-23T02:26:12;14.27;;;12.90;;
36669;SDS011;22662;47.412;9.742;2022-07-23T02:28:38;12.82;;;11.73;;
36669;SDS011;22662;47.412;9.742;2022-07-23T02:31:04;16.08;;;13.27;;
36669;SDS011;22662;47.412;9.742;2022-07-23T02:33:30;14.77;;;13.38;;
36669;SDS011;22662;47.412;9.742;2022-07-23T02:35:56;15.30;;;13.90;;
36669;SDS011;22662;47.412;9.742;2022-07-23T02:38:22;15.50;;;14.00;;
36669;SDS011;22662;47.412;9.742;2022-07-23T02:40:47;19.23;;;13.85;;
36669;SDS011;22662;47.412;9.742;2022-07-23T02:43:13;14.40;;;13.02;;
36669;SDS011;22662;47.412;9.742;2022-07-23T02:45:39;14.65;;;13.15;;
36669;SDS011;22662;47.412;9.742;2022-07-23T02:48:05;15.35;;;13.82;;
36669;SDS011;22662;47.412;9.742;2022-07-23T02:50:30;13.95;;;12.68;;
36669;SDS011;22662;47.412;9.742;2022-07-23T02:52:56;14.43;;;13.07;;
36669;SDS011;22662;47.412;9.742;2022-07-23T02:55:22;14.88;;;13.48;;
36669;SDS011;22662;47.412;9.742;2022-07-23T02:57:48;15.13;;;13.50;;
36669;SDS011;22662;47.412;9.742;2022-07-23T03:00:13;14.90;;;13.40;;
36669;SDS011;22662;47.412;9.742;2022-07-23T03:02:39;15.35;;;13.85;;
36669;SDS011;22662;47.412;9.742;2022-07-23T03:05:05;15.05;;;13.65;;
36669;SDS011;22662;47.412;9.742;2022-07-23T03:07:31;15.50;;;14.00;;
36669;SDS011;22662;47.412;9.742;2022-07-23T03:09:57;15.30;;;13.80;;
36669;SDS011;22662;47.412;9.742;2022-07-23T03:12:23;14.27;;;12.90;;
36669;SDS011;22662;47.412;9.742;2022-07-23T03:14:49;15.30;;;13.80;;
36669;SDS011;22662;47.412;9.742;2022-07-23T03:17:14;12.48;;;11.38;;
36669;SDS011;22662;47.412;9.742;2022-07-23T03:19:40;12.73;;;11.57;;
36669;SDS011;22662;47.412;9.742;2022-07-23T03:22:06;12.50;;;11.30;;
36669;SDS011;22662;47.412;9.742;2022-07-23T03:24:32;12.70;;;11.60;;
36669;SDS011;22662;47.412;9.742;2022-07-23T03:27:17;14.05;;;12.65;;
36669;SDS011;22662;47.412;9.742;2022-07-23T03:29:42;12.02;;;10.90;;
36669;SDS011;22662;47.412;9.742;2022-07-23T03:32:08;9.88;;;8.88;;
36669;SDS011;22662;47.412;9.742;2022-07-23T03:34:34;11.02;;;9.93;;
36669;SDS011;22662;47.412;9.742;2022-07-23T03:37:01;8.95;;;8.15;;
36669;SDS011;22662;47.412;9.742;2022-07-23T03:39:27;10.73;;;9.75;;
36669;SDS011;22662;47.412;9.742;2022-07-23T03:41:55;10.05;;;9.00;;
36669;SDS011;22662;47.412;9.742;2022-07-23T03:44:21;8.82;;;8.02;;
36669;SDS011;22662;47.412;9.742;2022-07-23T03:46:47;8.55;;;7.75;;
36669;SDS011;22662;47.412;9.742;2022-07-23T03:49:12;7.80;;;7.10;;
36669;SDS011;22662;47.412;9.742;2022-07-23T03:51:38;8.18;;;7.47;;
36669;SDS011;22662;47.412;9.742;2022-07-23T03:54:04;8.57;;;7.78;;
36669;SDS011;22662;47.412;9.742;2022-07-23T03:56:30;8.38;;;7.57;;
36669;SDS011;22662;47.412;9.742;2022-07-23T03:58:56;7.97;;;7.28;;
36669;SDS011;22662;47.412;9.742;2022-07-23T04:01:21;7.50;;;6.70;;
36669;SDS011;22662;47.412;9.742;2022-07-23T04:03:47;6.60;;;6.00;;
36669;SDS011;22662;47.412;9.742;2022-07-23T04:06:13;8.20;;;6.43;;
36669;SDS011;22662;47.412;9.742;2022-07-23T04:08:39;6.57;;;5.97;;
36669;SDS011;22662;47.412;9.742;2022-07-23T04:11:05;7.15;;;6.55;;
36669;SDS011;22662;47.412;9.742;2022-07-23T04:13:30;7.18;;;6.47;;
36669;SDS011;22662;47.412;9.742;2022-07-23T04:15:57;7.07;;;6.43;;
36669;SDS011;22662;47.412;9.742;2022-07-23T04:18:23;7.03;;;6.43;;
36669;SDS011;22662;47.412;9.742;2022-07-23T04:20:52;6.57;;;5.97;;
36669;SDS011;22662;47.412;9.742;2022-07-23T04:23:18;6.55;;;6.03;;
36669;SDS011;22662;47.412;9.742;2022-07-23T04:25:44;6.78;;;6.10;;
36669;SDS011;22662;47.412;9.742;2022-07-23T04:28:10;7.13;;;6.53;;
36669;SDS011;22662;47.412;9.742;2022-07-23T04:30:36;7.70;;;6.35;;
36669;SDS011;22662;47.412;9.742;2022-07-23T04:33:02;7.30;;;6.60;;
36669;SDS011;22662;47.412;9.742;2022-07-23T04:35:35;6.82;;;5.95;;
36669;SDS011;22662;47.412;9.742;2022-07-23T04:38:01;6.80;;;6.20;;
36669;SDS011;22662;47.412;9.742;2022-07-23T04:40:28;7.00;;;6.40;;
36669;SDS011;22662;47.412;9.742;2022-07-23T04:42:54;6.75;;;6.15;;
36669;SDS011;22662;47.412;9.742;2022-07-23T04:45:19;5.45;;;5.05;;
36669;SDS011;22662;47.412;9.742;2022-07-23T04:47:45;5.65;;;5.10;;
36669;SDS011;22662;47.412;9.742;2022-07-23T04:50:11;5.60;;;5.15;;
36669;SDS011;22662;47.412;9.742;2022-07-23T04:52:37;5.60;;;5.10;;
36669;SDS011;22662;47.412;9.742;2022-07-23T04:55:04;4.68;;;4.28;;
36669;SDS011;22662;47.412;9.742;2022-07-23T04:57:30;6.25;;;4.63;;
36669;SDS011;22662;47.412;9.742;2022-07-23T04:59:55;4.75;;;4.18;;
36669;SDS011;22662;47.412;9.742;2022-07-23T05:02:21;4.80;;;4.35;;
36669;SDS011;22662;47.412;9.742;2022-07-23T05:04:47;4.15;;;3.85;;
36669;SDS011;22662;47.412;9.742;2022-07-23T05:07:13;5.95;;;4.97;;
36669;SDS011;22662;47.412;9.742;2022-07-23T05:09:38;5.70;;;5.10;;
36669;SDS011;22662;47.412;9.742;2022-07-23T05:12:04;4.70;;;4.30;;
36669;SDS011;22662;47.412;9.742;2022-07-23T05:14:30;5.13;;;4.30;;
36669;SDS011;22662;47.412;9.742;2022-07-23T05:16:56;5.55;;;4.90;;
36669;SDS011;22662;47.412;9.742;2022-07-23T05:19:22;5.43;;;4.88;;
36669;SDS011;22662;47.412;9.742;2022-07-23T05:21:48;6.03;;;5.28;;
36669;SDS011;22662;47.412;9.742;2022-07-23T05:24:13;5.88;;;5.38;;
36669;SDS011;22662;47.412;9.742;2022-07-23T05:26:39;5.65;;;5.15;;
36669;SDS011;22662;47.412;9.742;2022-07-23T05:29:05;5.97;;;5.38;;
36669;SDS011;22662;47.412;9.742;2022-07-23T05:31:31;8.80;;;5.57;;
36669;SDS011;22662;47.412;9.742;2022-07-23T05:33:56;6.38;;;5.55;;
36669;SDS011;22662;47.412;9.742;2022-07-23T05:36:22;5.47;;;5.07;;
36669;SDS011;22662;47.412;9.742;2022-07-23T05:38:48;6.43;;;5.82;;
36669;SDS011;22662;47.412;9.742;2022-07-23T05:41:14;6.30;;;5.70;;
36669;SDS011;22662;47.412;9.742;2022-07-23T05:43:39;5.82;;;5.28;;
36669;SDS011;22662;47.412;9.742;2022-07-23T05:46:05;5.65;;;5.15;;
36669;SDS011;22662;47.412;9.742;2022-07-23T05:48:31;6.32;;;5.72;;
36669;SDS011;22662;47.412;9.742;2022-07-23T05:50:57;6.38;;;5.57;;
36669;SDS011;22662;47.412;9.742;2022-07-23T05:53:22;7.32;;;5.47;;
36669;SDS011;22662;47.412;9.742;2022-07-23T05:55:49;5.80;;;5.28;;
36669;SDS011;22662;47.412;9.742;2022-07-23T05:58:15;6.45;;;5.90;;
36669;SDS011;22662;47.412;9.742;2022-07-23T06:00:40;6.22;;;5.30;;
36669;SDS011;22662;47.412;9.742;2022-07-23T06:03:06;6.57;;;5.35;;
36669;SDS011;22662;47.412;9.742;2022-07-23T06:05:32;5.53;;;5.03;;
36669;SDS011;22662;47.412;9.742;2022-07-23T06:07:58;5.90;;;5.30;;
36669;SDS011;22662;47.412;9.742;2022-07-23T06:10:23;5.45;;;4.97;;
36669;SDS011;22662;47.412;9.742;2022-07-23T06:12:49;5.32;;;4.82;;
36669;SDS011;22662;47.412;9.742;2022-07-23T06:15:15;5.00;;;4.60;;
36669;SDS011;22662;47.412;9.742;2022-07-23T06:17:41;5.38;;;4.88;;
36669;SDS011;22662;47.412;9.742;2022-07-23T06:20:07;5.47;;;4.55;;
36669;SDS011;22662;47.412;9.742;2022-07-23T06:22:34;5.55;;;4.88;;
36669;SDS011;22662;47.412;9.742;2022-07-23T06:25:01;5.60;;;5.03;;
36669;SDS011;22662;47.412;9.742;2022-07-23T06:27:27;5.38;;;4.75;;
36669;SDS011;22662;47.412;9.742;2022-07-23T06:29:53;5.30;;;4.80;;
36669;SDS011;22662;47.412;9.742;2022-07-23T06:32:19;5.07;;;4.57;;
36669;SDS011;22662;47.412;9.742;2022-07-23T06:34:45;5.40;;;4.90;;
36669;SDS011;22662;47.412;9.742;2022-07-23T06:37:10;5.55;;;5.05;;
36669;SDS011;22662;47.412;9.742;2022-07-23T06:39:36;5.60;;;5.10;;
36669;SDS011;22662;47.412;9.742;2022-07-23T06:42:02;6.05;;;4.90;;
36669;SDS011;22662;47.412;9.742;2022-07-23T06:44:28;5.25;;;4.75;;
36669;SDS011;22662;47.412;9.742;2022-07-23T06:46:54;5.70;;;5.05;;
36669;SDS011;22662;47.412;9.742;2022-07-23T06:49:19;7.93;;;4.75;;
36669;SDS011;22662;47.412;9.742;2022-07-23T06:51:45;5.03;;;4.55;;
36669;SDS011;22662;47.412;9.742;2022-07-23T06:54:11;5.20;;;4.70;;
36669;SDS011;22662;47.412;9.742;2022-07-23T06:56:37;5.40;;;4.90;;
36669;SDS011;22662;47.412;9.742;2022-07-23T06:59:03;5.45;;;4.68;;
36669;SDS011;22662;47.412;9.742;2022-07-23T07:01:29;5.55;;;4.85;;
36669;SDS011;22662;47.412;9.742;2022-07-23T07:03:54;5.15;;;4.65;;
36669;SDS011;22662;47.412;9.742;2022-07-23T07:06:20;5.18;;;4.65;;
36669;SDS011;22662;47.412;9.742;2022-07-23T07:08:46;5.72;;;5.18;;
36669;SDS011;22662;47.412;9.742;2022-07-23T07:11:12;4.72;;;4.32;;
36669;SDS011;22662;47.412;9.742;2022-07-23T07:13:38;4.93;;;4.43;;
36669;SDS011;22662;47.412;9.742;2022-07-23T07:16:04;4.57;;;4.18;;
36669;SDS011;22662;47.412;9.742;2022-07-23T07:18:30;4.90;;;4.47;;
36669;SDS011;22662;47.412;9.742;2022-07-23T07:20:59;5.20;;;4.70;;
36669;SDS011;22662;47.412;9.742;2022-07-23T07:23:24;5.28;;;4.78;;
36669;SDS011;22662;47.412;9.742;2022-07-23T07:25:50;5.30;;;4.88;;
36669;SDS011;22662;47.412;9.742;2022-07-23T07:28:16;4.78;;;4.28;;
36669;SDS011;22662;47.412;9.742;2022-07-23T07:30:42;5.07;;;4.65;;
36669;SDS011;22662;47.412;9.742;2022-07-23T07:33:08;5.20;;;4.70;;
36669;SDS011;22662;47.412;9.742;2022-07-23T07:35:33;5.13;;;4.72;;
36669;SDS011;22662;47.412;9.742;2022-07-23T07:37:59;5.53;;;5.00;;
36669;SDS011;22662;47.412;9.742;2022-07-23T07:40:26;5.22;;;4.78;;
36669;SDS011;22662;47.412;9.742;2022-07-23T07:42:52;5.32;;;4.82;;
36669;SDS011;22662;47.412;9.742;2022-07-23T07:45:22;5.82;;;5.28;;
36669;SDS011;22662;47.412;9.742;2022-07-23T07:47:49;6.20;;;5.30;;
36669;SDS011;22662;47.412;9.742;2022-07-23T07:50:16;6.35;;;5.18;;
36669;SDS011;22662;47.412;9.742;2022-07-23T07:52:42;5.90;;;5.40;;
36669;SDS011;22662;47.412;9.742;2022-07-23T07:55:08;5.97;;;5.35;;
36669;SDS011;22662;47.412;9.742;2022-07-23T07:57:35;5.72;;;5.22;;
36669;SDS011;22662;47.412;9.742;2022-07-23T08:00:01;6.25;;;5.75;;
36669;SDS011;22662;47.412;9.742;2022-07-23T08:02:27;6.47;;;5.30;;
36669;SDS011;22662;47.412;9.742;2022-07-23T08:04:52;6.10;;;5.50;;
36669;SDS011;22662;47.412;9.742;2022-07-23T08:07:19;6.10;;;5.50;;
36669;SDS011;22662;47.412;9.742;2022-07-23T08:09:45;6.72;;;6.10;;
36669;SDS011;22662;47.412;9.742;2022-07-23T08:12:10;5.78;;;5.28;;
36669;SDS011;22662;47.412;9.742;2022-07-23T08:14:36;5.95;;;5.45;;
36669;SDS011;22662;47.412;9.742;2022-07-23T08:17:02;6.60;;;5.95;;
36669;SDS011;22662;47.412;9.742;2022-07-23T08:19:27;6.03;;;5.43;;
36669;SDS011;22662;47.412;9.742;2022-07-23T08:21:53;6.13;;;5.63;;
36669;SDS011;22662;47.412;9.742;2022-07-23T08:24:19;5.90;;;5.40;;
36669;SDS011;22662;47.412;9.742;2022-07-23T08:26:45;5.90;;;5.40;;
36669;SDS011;22662;47.412;9.742;2022-07-23T08:29:10;6.63;;;5.43;;
36669;SDS011;22662;47.412;9.742;2022-07-23T08:31:36;5.50;;;5.00;;
36669;SDS011;22662;47.412;9.742;2022-07-23T08:34:02;5.25;;;4.75;;
36669;SDS011;22662;47.412;9.742;2022-07-23T08:36:28;5.43;;;4.93;;
36669;SDS011;22662;47.412;9.742;2022-07-23T08:38:57;5.93;;;5.43;;
36669;SDS011;22662;47.412;9.742;2022-07-23T08:41:24;6.53;;;5.93;;
36669;SDS011;22662;47.412;9.742;2022-07-23T08:43:50;6.45;;;5.85;;
36669;SDS011;22662;47.412;9.742;2022-07-23T08:46:17;7.18;;;5.70;;
36669;SDS011;22662;47.412;9.742;2022-07-23T08:48:44;6.00;;;5.50;;
36669;SDS011;22662;47.412;9.742;2022-07-23T08:51:13;6.10;;;5.45;;
36669;SDS011;22662;47.412;9.742;2022-07-23T08:53:39;6.07;;;5.53;;
36669;SDS011;22662;47.412;9.742;2022-07-23T08:56:07;5.90;;;5.10;;
36669;SDS011;22662;47.412;9.742;2022-07-23T08:58:33;5.55;;;5.03;;
36669;SDS011;22662;47.412;9.742;2022-07-23T09:01:00;6.18;;;5.57;;
36669;SDS011;22662;47.412;9.742;2022-07-23T09:03:33;5.60;;;5.10;;
36669;SDS011;22662;47.412;9.742;2022-07-23T09:06:01;6.95;;;5.50;;
36669;SDS011;22662;47.412;9.742;2022-07-23T09:08:37;5.97;;;5.47;;
36669;SDS011;22662;47.412;9.742;2022-07-23T09:11:08;7.05;;;6.35;;
36669;SDS011;22662;47.412;9.742;2022-07-23T09:16:13;7.45;;;6.75;;
36669;SDS011;22662;47.412;9.742;2022-07-23T09:18:40;6.63;;;6.10;;
36669;SDS011;22662;47.412;9.742;2022-07-23T09:21:12;7.40;;;6.43;;
36669;SDS011;22662;47.412;9.742;2022-07-23T09:23:57;7.75;;;7.00;;
36669;SDS011;22662;47.412;9.742;2022-07-23T09:26:32;7.22;;;6.53;;
36669;SDS011;22662;47.412;9.742;2022-07-23T09:36:46;7.85;;;7.05;;
36669;SDS011;22662;47.412;9.742;2022-07-23T09:39:13;7.47;;;6.78;;
36669;SDS011;22662;47.412;9.742;2022-07-23T09:41:42;8.20;;;7.38;;
36669;SDS011;22662;47.412;9.742;2022-07-23T09:44:11;8.15;;;7.40;;
36669;SDS011;22662;47.412;9.742;2022-07-23T09:46:41;7.85;;;7.15;;
36669;SDS011;22662;47.412;9.742;2022-07-23T09:49:10;8.38;;;7.57;;
36669;SDS011;22662;47.412;9.742;2022-07-23T09:51:45;8.73;;;7.90;;
36669;SDS011;22662;47.412;9.742;2022-07-23T09:54:23;8.38;;;7.57;;
36669;SDS011;22662;47.412;9.742;2022-07-23T09:57:04;9.32;;;8.38;;
36669;SDS011;22662;47.412;9.742;2022-07-23T09:59:42;9.18;;;7.93;;
36669;SDS011;22662;47.412;9.742;2022-07-23T10:02:11;9.23;;;8.32;;
36669;SDS011;22662;47.412;9.742;2022-07-23T10:04:38;11.32;;;9.35;;
36669;SDS011;22662;47.412;9.742;2022-07-23T10:07:05;9.13;;;8.32;;
36669;SDS011;22662;47.412;9.742;2022-07-23T10:09:35;9.25;;;8.45;;
36669;SDS011;22662;47.412;9.742;2022-07-23T10:12:03;9.30;;;8.40;;
36669;SDS011;22662;47.412;9.742;2022-07-23T10:14:38;9.00;;;7.80;;
36669;SDS011;22662;47.412;9.742;2022-07-23T10:17:05;8.93;;;8.13;;
36669;SDS011;22662;47.412;9.742;2022-07-23T10:19:31;9.18;;;8.27;;
36669;SDS011;22662;47.412;9.742;2022-07-23T10:21:59;9.02;;;8.13;;
36669;SDS011;22662;47.412;9.742;2022-07-23T10:32:20;7.30;;;6.60;;
36669;SDS011;22662;47.412;9.742;2022-07-23T10:37:50;6.18;;;5.57;;
36669;SDS011;22662;47.412;9.742;2022-07-23T10:40:22;6.72;;;6.03;;
36669;SDS011;22662;47.412;9.742;2022-07-23T10:42:49;6.03;;;5.43;;
36669;SDS011;22662;47.412;9.742;2022-07-23T10:45:33;6.32;;;5.30;;
36669;SDS011;22662;47.412;9.742;2022-07-23T10:48:14;5.43;;;4.90;;
36669;SDS011;22662;47.412;9.742;2022-07-23T10:50:43;6.72;;;5.25;;
36669;SDS011;22662;47.412;9.742;2022-07-23T10:53:11;5.20;;;4.80;;
36669;SDS011;22662;47.412;9.742;2022-07-23T10:55:40;5.45;;;4.95;;
36669;SDS011;22662;47.412;9.742;2022-07-23T10:58:23;5.05;;;4.55;;
36669;SDS011;22662;47.412;9.742;2022-07-23T11:04:16;5.20;;;4.50;;
36669;SDS011;22662;47.412;9.742;2022-07-23T11:09:27;6.57;;;5.72;;
36669;SDS011;22662;47.412;9.742;2022-07-23T11:17:23;4.55;;;4.15;;
36669;SDS011;22662;47.412;9.742;2022-07-23T11:25:09;4.88;;;4.45;;
36669;SDS011;22662;47.412;9.742;2022-07-23T11:27:45;4.97;;;4.30;;
36669;SDS011;22662;47.412;9.742;2022-07-23T11:32:53;4.97;;;4.47;;
36669;SDS011;22662;47.412;9.742;2022-07-23T11:35:44;4.30;;;3.90;;
36669;SDS011;22662;47.412;9.742;2022-07-23T11:38:19;4.88;;;4.38;;
36669;SDS011;22662;47.412;9.742;2022-07-23T11:40:48;4.82;;;4.32;;
36669;SDS011;22662;47.412;9.742;2022-07-23T11:43:16;4.85;;;4.45;;
36669;SDS011;22662;47.412;9.742;2022-07-23T11:45:44;5.00;;;4.50;;
36669;SDS011;22662;47.412;9.742;2022-07-23T11:48:21;5.05;;;4.60;;
36669;SDS011;22662;47.412;9.742;2022-07-23T11:50:52;5.50;;;5.00;;
36669;SDS011;22662;47.412;9.742;2022-07-23T11:53:23;4.80;;;4.40;;
36669;SDS011;22662;47.412;9.742;2022-07-23T11:56:05;4.90;;;4.50;;
36669;SDS011;22662;47.412;9.742;2022-07-23T11:58:33;4.50;;;4.10;;
36669;SDS011;22662;47.412;9.742;2022-07-23T12:00:59;5.13;;;4.60;;
36669;SDS011;22662;47.412;9.742;2022-07-23T12:03:25;5.35;;;4.88;;
36669;SDS011;22662;47.412;9.742;2022-07-23T12:05:55;5.88;;;5.28;;
36669;SDS011;22662;47.412;9.742;2022-07-23T12:08:21;5.72;;;5.22;;
36669;SDS011;22662;47.412;9.742;2022-07-23T12:10:47;5.90;;;5.40;;
36669;SDS011;22662;47.412;9.742;2022-07-23T12:13:14;5.90;;;5.40;;
36669;SDS011;22662;47.412;9.742;2022-07-23T12:15:46;7.07;;;5.75;;
36669;SDS011;22662;47.412;9.742;2022-07-23T12:18:18;6.07;;;5.38;;
36669;SDS011;22662;47.412;9.742;2022-07-23T12:20:47;5.68;;;5.18;;
36669;SDS011;22662;47.412;9.742;2022-07-23T12:23:16;6.05;;;5.50;;
36669;SDS011;22662;47.412;9.742;2022-07-23T12:25:44;5.82;;;5.22;;
36669;SDS011;22662;47.412;9.742;2022-07-23T12:28:12;5.78;;;5.18;;
36669;SDS011;22662;47.412;9.742;2022-07-23T12:33:11;6.45;;;5.35;;
36669;SDS011;22662;47.412;9.742;2022-07-23T12:35:44;5.80;;;5.30;;
36669;SDS011;22662;47.412;9.742;2022-07-23T12:38:12;6.55;;;5.22;;
36669;SDS011;22662;47.412;9.742;2022-07-23T12:43:09;6.15;;;5.55;;
36669;SDS011;22662;47.412;9.742;2022-07-23T12:45:44;5.68;;;5.18;;
36669;SDS011;22662;47.412;9.742;2022-07-23T12:48:19;5.90;;;5.35;;
36669;SDS011;22662;47.412;9.742;2022-07-23T12:50:51;7.38;;;5.78;;
36669;SDS011;22662;47.412;9.742;2022-07-23T12:55:46;6.75;;;6.15;;
36669;SDS011;22662;47.412;9.742;2022-07-23T12:58:14;6.05;;;5.50;;
36669;SDS011;22662;47.412;9.742;2022-07-23T13:01:15;6.38;;;5.75;;
36669;SDS011;22662;47.412;9.742;2022-07-23T13:03:39;6.47;;;5.80;;
36669;SDS011;22662;47.412;9.742;2022-07-23T13:06:07;6.88;;;6.20;;
36669;SDS011;22662;47.412;9.742;2022-07-23T13:08:34;6.18;;;5.57;;
36669;SDS011;22662;47.412;9.742;2022-07-23T13:11:02;6.65;;;6.05;;
36669;SDS011;22662;47.412;9.742;2022-07-23T13:13:30;6.90;;;6.20;;
36669;SDS011;22662;47.412;9.742;2022-07-23T13:15:58;6.57;;;6.00;;
36669;SDS011;22662;47.412;9.742;2022-07-23T13:18:25;6.28;;;5.68;;
36669;SDS011;22662;47.412;9.742;2022-07-23T13:20:52;6.20;;;5.47;;
36669;SDS011;22662;47.412;9.742;2022-07-23T13:23:19;5.88;;;5.35;;
36669;SDS011;22662;47.412;9.742;2022-07-23T13:25:46;6.47;;;5.85;;
36669;SDS011;22662;47.412;9.742;2022-07-23T13:28:13;6.60;;;6.00;;
36669;SDS011;22662;47.412;9.742;2022-07-23T13:30:40;6.10;;;5.60;;
36669;SDS011;22662;47.412;9.742;2022-07-23T13:33:06;6.45;;;5.80;;
36669;SDS011;22662;47.412;9.742;2022-07-23T13:35:33;6.80;;;6.10;;
36669;SDS011;22662;47.412;9.742;2022-07-23T13:38:01;7.00;;;6.35;;
36669;SDS011;22662;47.412;9.742;2022-07-23T13:40:27;7.10;;;6.35;;
36669;SDS011;22662;47.412;9.742;2022-07-23T13:42:53;7.03;;;6.32;;
36669;SDS011;22662;47.412;9.742;2022-07-23T13:45:19;6.55;;;5.95;;
36669;SDS011;22662;47.412;9.742;2022-07-23T13:47:45;6.18;;;5.57;;
36669;SDS011;22662;47.412;9.742;2022-07-23T13:50:10;6.80;;;6.15;;
36669;SDS011;22662;47.412;9.742;2022-07-23T13:52:36;6.15;;;5.55;;
36669;SDS011;22662;47.412;9.742;2022-07-23T13:55:03;6.03;;;5.53;;
36669;SDS011;22662;47.412;9.742;2022-07-23T13:57:30;6.35;;;5.72;;
36669;SDS011;22662;47.412;9.742;2022-07-23T13:59:57;6.20;;;5.70;;
36669;SDS011;22662;47.412;9.742;2022-07-23T14:02:23;6.20;;;5.70;;
36669;SDS011;22662;47.412;9.742;2022-07-23T14:04:49;7.35;;;6.15;;
36669;SDS011;22662;47.412;9.742;2022-07-23T14:07:15;6.30;;;5.70;;
36669;SDS011;22662;47.412;9.742;2022-07-23T14:09:41;6.40;;;5.82;;
36669;SDS011;22662;47.412;9.742;2022-07-23T14:12:07;6.47;;;5.88;;
36669;SDS011;22662;47.412;9.742;2022-07-23T14:14:34;6.47;;;5.88;;
36669;SDS011;22662;47.412;9.742;2022-07-23T14:17:00;6.57;;;5.97;;
36669;SDS011;22662;47.412;9.742;2022-07-23T14:19:26;6.18;;;5.68;;
36669;SDS011;22662;47.412;9.742;2022-07-23T14:21:52;9.45;;;6.32;;
36669;SDS011;22662;47.412;9.742;2022-07-23T14:24:18;7.25;;;6.55;;
36669;SDS011;22662;47.412;9.742;2022-07-23T14:26:44;6.07;;;5.57;;
36669;SDS011;22662;47.412;9.742;2022-07-23T14:29:11;5.70;;;5.20;;
36669;SDS011;22662;47.412;9.742;2022-07-23T14:31:37;6.40;;;5.85;;
36669;SDS011;22662;47.412;9.742;2022-07-23T14:34:03;6.50;;;5.90;;
36669;SDS011;22662;47.412;9.742;2022-07-23T14:36:29;6.22;;;5.68;;
36669;SDS011;22662;47.412;9.742;2022-07-23T14:38:55;6.40;;;5.80;;
36669;SDS011;22662;47.412;9.742;2022-07-23T14:41:20;6.25;;;5.65;;
36669;SDS011;22662;47.412;9.742;2022-07-23T14:43:46;6.75;;;6.00;;
36669;SDS011;22662;47.412;9.742;2022-07-23T14:46:12;6.57;;;6.00;;
36669;SDS011;22662;47.412;9.742;2022-07-23T14:48:38;6.90;;;6.20;;
36669;SDS011;22662;47.412;9.742;2022-07-23T14:51:04;6.65;;;6.05;;
36669;SDS011;22662;47.412;9.742;2022-07-23T14:53:30;6.95;;;6.25;;
36669;SDS011;22662;47.412;9.742;2022-07-23T14:55:56;6.45;;;5.90;;
36669;SDS011;22662;47.412;9.742;2022-07-23T14:58:25;7.30;;;6.60;;
36669;SDS011;22662;47.412;9.742;2022-07-23T15:00:51;5.82;;;5.32;;
36669;SDS011;22662;47.412;9.742;2022-07-23T15:03:17;7.05;;;6.30;;
36669;SDS011;22662;47.412;9.742;2022-07-23T15:05:43;6.75;;;6.07;;
36669;SDS011;22662;47.412;9.742;2022-07-23T15:08:09;6.65;;;6.05;;
36669;SDS011;22662;47.412;9.742;2022-07-23T15:10:35;6.70;;;6.07;;
36669;SDS011;22662;47.412;9.742;2022-07-23T15:13:01;7.00;;;6.40;;
36669;SDS011;22662;47.412;9.742;2022-07-23T15:15:26;7.53;;;6.38;;
36669;SDS011;22662;47.412;9.742;2022-07-23T15:17:52;7.38;;;6.60;;
36669;SDS011;22662;47.412;9.742;2022-07-23T15:20:18;7.00;;;6.30;;
36669;SDS011;22662;47.412;9.742;2022-07-23T15:22:44;7.43;;;6.53;;
36669;SDS011;22662;47.412;9.742;2022-07-23T15:25:12;7.57;;;6.60;;
36669;SDS011;22662;47.412;9.742;2022-07-23T15:27:39;7.05;;;6.35;;
36669;SDS011;22662;47.412;9.742;2022-07-23T15:30:05;9.60;;;6.65;;
36669;SDS011;22662;47.412;9.742;2022-07-23T15:32:31;6.97;;;6.18;;